createdAt,value
2018-02-06T00:00:26.052Z,22.87
2018-02-06T00:02:53.581Z,22.90
2018-02-06T00:05:22.093Z,24.07
2018-02-06T00:07:49.635Z,22.13
2018-02-06T00:10:18.116Z,21.67
2018-02-06T00:12:45.673Z,22.03
2018-02-06T00:15:13.210Z,22.33
2018-02-06T00:17:40.786Z,23.63
2018-02-06T00:20:08.330Z,24.13
2018-02-06T00:22:48.737Z,23.10
2018-02-06T00:25:16.262Z,21.30
2018-02-06T00:27:43.822Z,22.27
2018-02-06T00:30:11.354Z,22.10
2018-02-06T00:32:38.910Z,22.93
2018-02-06T00:35:06.473Z,23.10
2018-02-06T00:37:35.183Z,22.10
2018-02-06T00:40:02.743Z,24.17
2018-02-06T00:42:30.274Z,23.40
2018-02-06T00:44:57.850Z,22.00
2018-02-06T00:47:25.391Z,23.33
2018-02-06T00:49:52.925Z,22.40
2018-02-06T00:52:21.267Z,23.00
2018-02-06T00:54:48.799Z,22.63
2018-02-06T00:57:16.351Z,21.73
2018-02-06T00:59:43.878Z,22.17
2018-02-06T01:02:11.434Z,24.63
2018-02-06T01:04:38.967Z,22.63
2018-02-06T01:07:06.526Z,22.63
2018-02-06T01:09:34.826Z,24.30
2018-02-06T01:12:03.123Z,22.00
2018-02-06T01:14:31.627Z,25.63
2018-02-06T01:16:59.146Z,22.57
2018-02-06T01:19:26.698Z,22.37
2018-02-06T01:21:54.233Z,24.00
2018-02-06T01:24:21.803Z,22.37
2018-02-06T01:26:49.335Z,23.00
2018-02-06T01:29:16.897Z,22.87
2018-02-06T01:31:45.364Z,22.13
2018-02-06T01:34:12.902Z,23.20
2018-02-06T01:36:40.447Z,21.90
2018-02-06T01:39:08.952Z,22.20
2018-02-06T01:41:36.515Z,22.50
2018-02-06T01:44:04.047Z,22.37
2018-02-06T01:46:33.527Z,21.83
2018-02-06T01:49:01.058Z,22.40
2018-02-06T01:51:28.611Z,21.47
2018-02-06T01:53:56.145Z,21.73
2018-02-06T01:56:23.694Z,20.57
2018-02-06T01:58:51.222Z,22.90
2018-02-06T02:01:28.972Z,21.97
2018-02-06T02:03:57.465Z,24.30
2018-02-06T02:06:24.998Z,25.93
2018-02-06T02:08:52.551Z,22.00
2018-02-06T02:11:20.086Z,23.33
2018-02-06T02:13:47.653Z,23.43
2018-02-06T02:16:15.953Z,24.37
2018-02-06T02:18:43.499Z,23.87
2018-02-06T02:21:11.021Z,23.40
2018-02-06T02:23:38.548Z,23.83
2018-02-06T02:26:06.091Z,23.43
2018-02-06T02:28:33.619Z,23.37
2018-02-06T02:31:01.943Z,23.53
2018-02-06T02:33:29.466Z,22.83
2018-02-06T02:35:57.024Z,24.80
2018-02-06T02:38:24.553Z,23.60
2018-02-06T02:40:52.089Z,23.40
2018-02-06T04:39:04.358Z,35.80
2018-02-06T04:41:31.882Z,35.50
2018-02-06T04:43:59.446Z,34.23
2018-02-06T04:46:28.526Z,32.40
2018-02-06T04:48:56.058Z,30.30
2018-02-06T04:51:23.613Z,29.70
2018-02-06T04:53:51.902Z,28.97
2018-02-06T04:56:19.470Z,28.13
2018-02-06T04:58:46.997Z,28.50
2018-02-06T05:01:15.317Z,29.10
2018-02-06T05:03:42.837Z,32.73
2018-02-06T05:06:12.088Z,32.50
2018-02-06T05:08:41.600Z,41.93
2018-02-06T05:11:09.118Z,38.77
2018-02-06T05:13:36.685Z,44.80
2018-02-06T05:16:04.200Z,34.83
2018-02-06T05:18:31.746Z,38.30
2018-02-06T05:20:59.278Z,37.17
2018-02-06T05:23:26.799Z,36.33
2018-02-06T05:25:56.144Z,37.00
2018-02-06T05:28:23.675Z,37.63
2018-02-06T05:30:51.234Z,41.10
2018-02-06T05:33:18.749Z,41.13
2018-02-06T05:35:46.297Z,39.43
2018-02-06T05:38:14.582Z,41.30
2018-02-06T05:40:42.867Z,40.00
2018-02-06T05:43:10.417Z,39.40
2018-02-06T05:45:37.940Z,38.40
2018-02-06T05:48:05.503Z,36.97
2018-02-06T05:50:33.017Z,36.27
2018-02-06T05:53:00.590Z,33.77
2018-02-06T05:55:28.112Z,30.50
2018-02-06T05:57:56.402Z,36.93
2018-02-06T06:00:23.958Z,32.87
2018-02-06T06:02:52.262Z,30.53
2018-02-06T06:05:19.830Z,31.70
2018-02-06T06:07:47.361Z,33.30
2018-02-06T06:10:15.699Z,33.00
2018-02-06T06:12:43.230Z,34.60
2018-02-06T06:15:11.707Z,34.23
2018-02-06T06:17:39.274Z,36.93
2018-02-06T06:20:06.802Z,44.23
2018-02-06T06:22:36.295Z,35.00
2018-02-06T06:25:03.826Z,33.03
2018-02-06T06:27:31.387Z,35.27
2018-02-06T06:29:58.946Z,33.07
2018-02-06T06:32:26.474Z,34.40
2018-02-06T06:34:54.027Z,35.47
2018-02-06T06:37:21.557Z,37.30
2018-02-06T06:39:49.106Z,36.93
2018-02-06T06:42:17.400Z,36.27
2018-02-06T06:44:44.969Z,38.87
2018-02-06T06:47:12.508Z,40.73
2018-02-06T06:49:40.046Z,38.30
2018-02-06T06:52:09.537Z,37.97
2018-02-06T06:54:37.066Z,38.83
2018-02-06T06:57:04.627Z,41.17
2018-02-06T06:59:33.105Z,42.07
2018-02-06T07:02:00.639Z,38.37
2018-02-06T07:04:28.198Z,38.90
2018-02-06T07:06:55.723Z,39.77
2018-02-06T07:09:23.282Z,43.00
2018-02-06T07:11:50.815Z,50.33
2018-02-06T07:14:19.346Z,86.90
2018-02-06T07:16:46.875Z,135.53
2018-02-06T07:19:14.416Z,47.80
2018-02-06T07:21:41.982Z,44.03
2018-02-06T07:24:10.274Z,45.53
2018-02-06T07:26:37.843Z,106.70
2018-02-06T07:29:05.375Z,91.90
2018-02-06T07:31:32.950Z,49.70
2018-02-06T07:34:00.499Z,59.20
2018-02-06T07:36:28.018Z,42.90
2018-02-06T07:38:55.562Z,38.90
2018-02-06T07:41:23.078Z,37.57
2018-02-06T07:43:50.633Z,40.73
2018-02-06T07:46:18.162Z,43.43
2018-02-06T07:48:45.734Z,44.57
2018-02-06T07:51:13.874Z,40.78
2018-02-06T07:53:41.408Z,41.07
2018-02-06T07:56:10.946Z,86.30
2018-02-06T07:58:38.490Z,47.30
2018-02-06T08:01:06.055Z,42.43
2018-02-06T08:03:33.580Z,42.33
2018-02-06T08:06:01.914Z,48.03
2018-02-06T08:08:29.448Z,45.47
2018-02-06T08:10:56.971Z,38.97
2018-02-06T08:13:24.526Z,55.40
2018-02-06T08:15:52.056Z,49.30
2018-02-06T08:18:19.618Z,60.70
2018-02-06T08:20:47.142Z,52.23
2018-02-06T08:23:14.690Z,56.57
2018-02-06T08:25:42.236Z,42.43
2018-02-06T08:28:09.871Z,38.97
2018-02-06T08:30:39.536Z,35.80
2018-02-06T08:33:07.322Z,34.90
2018-02-06T08:35:35.269Z,36.93
2018-02-06T08:38:02.826Z,36.73
2018-02-06T08:40:30.387Z,37.77
2018-02-06T08:42:57.923Z,36.63
2018-02-06T08:45:25.451Z,38.17
2018-02-06T08:47:53.014Z,40.77
2018-02-06T08:50:20.548Z,37.80
2018-02-06T08:52:48.113Z,36.97
2018-02-06T08:55:15.654Z,35.57
2018-02-06T08:57:43.219Z,38.90
2018-02-06T09:00:10.753Z,36.80
2018-02-06T09:02:38.276Z,36.80
2018-02-06T09:05:06.136Z,36.50
2018-02-06T09:07:33.659Z,36.90
2018-02-06T09:10:01.207Z,37.43
2018-02-06T09:12:28.783Z,38.57
2018-02-06T09:14:58.282Z,34.70
2018-02-06T09:17:25.804Z,35.13
2018-02-06T09:19:53.350Z,33.07
2018-02-06T09:22:21.666Z,32.83
2018-02-06T09:24:49.283Z,27.93
2018-02-06T09:27:17.606Z,26.97
2018-02-06T09:29:45.133Z,25.77
2018-02-06T09:32:12.682Z,25.90
2018-02-06T09:34:40.214Z,27.97
2018-02-06T09:37:07.747Z,28.60
2018-02-06T09:39:35.322Z,28.37
2018-02-06T09:42:02.922Z,27.50
2018-02-06T09:44:31.244Z,26.97
2018-02-06T09:46:59.758Z,27.10
2018-02-06T09:49:27.285Z,29.43
2018-02-06T09:51:54.826Z,30.70
2018-02-06T09:54:22.356Z,41.23
2018-02-06T09:56:50.665Z,48.07
2018-02-06T09:59:18.198Z,32.20
2018-02-06T10:01:45.863Z,32.50
2018-02-06T10:04:13.385Z,41.33
2018-02-06T10:06:40.931Z,32.93
2018-02-06T10:09:08.484Z,29.60
2018-02-06T10:11:36.012Z,32.97
2018-02-06T10:14:05.809Z,35.77
2018-02-06T10:16:33.356Z,39.80
2018-02-06T10:19:03.642Z,37.70
2018-02-06T10:21:32.133Z,41.97
2018-02-06T10:24:00.478Z,46.00
2018-02-06T10:26:28.026Z,39.20
2018-02-06T10:28:55.547Z,40.13
2018-02-06T10:31:23.137Z,40.47
2018-02-06T10:33:50.659Z,41.20
2018-02-06T10:36:20.150Z,42.77
2018-02-06T10:38:48.439Z,42.20
2018-02-06T10:41:15.963Z,40.87
2018-02-06T10:43:44.195Z,40.87
2018-02-06T10:46:11.885Z,44.40
2018-02-06T10:48:39.438Z,42.17
2018-02-06T10:51:07.034Z,42.27
2018-02-06T10:53:34.585Z,38.90
2018-02-06T10:56:02.121Z,41.67
2018-02-06T10:58:29.651Z,44.90
2018-02-06T11:00:57.203Z,43.97
2018-02-06T11:03:24.726Z,40.00
2018-02-06T11:05:53.050Z,37.57
2018-02-06T11:08:20.573Z,44.30
2018-02-06T11:10:49.112Z,38.33
2018-02-06T11:13:16.669Z,40.90
2018-02-06T11:15:45.866Z,38.03
2018-02-06T11:18:13.393Z,51.20
2018-02-06T11:20:40.921Z,38.30
2018-02-06T11:23:08.471Z,39.50
2018-02-06T11:25:35.990Z,45.03
2018-02-06T11:28:03.588Z,50.77
2018-02-06T11:30:31.121Z,44.13
2018-02-06T11:32:58.649Z,42.00
2018-02-06T11:35:26.190Z,46.03
2018-02-06T11:37:55.821Z,43.10
2018-02-06T11:40:23.549Z,46.47
2018-02-06T11:42:51.066Z,43.77
2018-02-06T11:45:18.700Z,40.73
2018-02-06T11:47:46.286Z,42.70
2018-02-06T11:50:13.837Z,43.63
2018-02-06T11:52:41.363Z,42.40
2018-02-06T11:55:09.645Z,41.90
2018-02-06T11:57:39.063Z,43.30
2018-02-06T12:00:06.576Z,44.33
2018-02-06T12:02:34.130Z,42.00
2018-02-06T12:05:02.417Z,44.00
2018-02-06T12:07:30.031Z,42.23
2018-02-06T12:09:57.562Z,43.40
2018-02-06T12:12:25.847Z,44.27
2018-02-06T12:14:53.393Z,46.67
2018-02-06T12:17:21.694Z,46.90
2018-02-06T12:19:49.257Z,42.67
2018-02-06T12:22:16.804Z,43.13
2018-02-06T12:24:44.382Z,41.93
2018-02-06T12:27:11.925Z,40.17
2018-02-06T12:29:39.474Z,39.20
2018-02-06T12:32:06.998Z,40.37
2018-02-06T12:34:34.531Z,42.83
2018-02-06T12:37:02.078Z,43.50
2018-02-06T12:39:29.606Z,40.23
2018-02-06T12:41:57.179Z,42.17
2018-02-06T12:44:24.689Z,46.60
2018-02-06T12:46:53.376Z,43.20
2018-02-06T12:49:23.733Z,52.03
2018-02-06T12:51:51.324Z,42.87
2018-02-06T12:54:18.845Z,41.87
2018-02-06T12:56:47.127Z,41.83
2018-02-06T12:59:14.682Z,44.80
2018-02-06T13:01:42.201Z,44.27
2018-02-06T13:04:09.740Z,43.03
2018-02-06T13:06:38.321Z,42.60
2018-02-06T13:09:05.869Z,40.53
2018-02-06T13:11:33.395Z,41.63
2018-02-06T13:14:00.913Z,40.70
2018-02-06T13:16:28.466Z,40.70
2018-02-06T13:18:56.006Z,43.87
2018-02-06T13:21:24.317Z,43.63
2018-02-06T13:23:51.837Z,42.40
2018-02-06T13:26:19.394Z,41.17
2018-02-06T13:28:46.918Z,41.77
2018-02-06T13:31:14.439Z,42.40
2018-02-06T13:33:41.973Z,42.40
2018-02-06T13:36:09.488Z,42.07
2018-02-06T13:38:37.803Z,42.80
2018-02-06T13:41:05.364Z,39.77
2018-02-06T13:43:32.923Z,39.57
2018-02-06T13:46:00.450Z,39.70
2018-02-06T13:48:27.973Z,42.87
2018-02-06T13:50:55.522Z,45.73
2018-02-06T13:53:23.046Z,40.43
2018-02-06T13:55:50.626Z,38.90
2018-02-06T13:58:18.145Z,46.70
2018-02-06T14:00:46.459Z,40.20
2018-02-06T14:03:14.955Z,40.67
2018-02-06T14:05:43.199Z,40.80
2018-02-06T14:08:12.054Z,36.87
2018-02-06T14:10:44.942Z,38.83
2018-02-06T14:13:12.514Z,37.13
2018-02-06T14:15:40.994Z,38.70
2018-02-06T14:18:08.539Z,36.60
2018-02-06T14:20:36.825Z,38.03
2018-02-06T14:23:04.389Z,36.93
2018-02-06T14:25:31.914Z,38.40
2018-02-06T14:27:59.440Z,38.33
2018-02-06T14:30:27.010Z,40.23
2018-02-06T14:32:54.535Z,37.97
2018-02-06T14:35:22.085Z,37.77
2018-02-06T14:37:50.590Z,36.93
2018-02-06T14:40:18.142Z,37.27
2018-02-06T14:42:45.669Z,36.43
2018-02-06T14:45:14.145Z,39.43
2018-02-06T14:47:41.666Z,38.50
2018-02-06T14:50:09.190Z,39.80
2018-02-06T14:52:36.735Z,39.20
2018-02-06T14:55:04.254Z,39.20
2018-02-06T14:57:33.760Z,38.37
2018-02-06T15:00:01.311Z,38.23
2018-02-06T15:02:28.927Z,40.73
2018-02-06T15:04:56.464Z,40.70
2018-02-06T15:07:24.798Z,43.73
2018-02-06T15:09:52.315Z,40.00
2018-02-06T15:12:19.881Z,40.93
2018-02-06T15:14:47.406Z,42.03
2018-02-06T15:17:15.000Z,41.47
2018-02-06T15:19:42.562Z,42.20
2018-02-06T15:22:10.085Z,40.83
2018-02-06T15:24:37.667Z,43.53
2018-02-06T15:27:05.204Z,43.70
2018-02-06T15:29:33.514Z,44.73
2018-02-06T15:32:01.034Z,41.33
2018-02-06T15:34:28.550Z,41.53
2018-02-06T15:36:56.098Z,41.23
2018-02-06T15:39:24.595Z,41.90
2018-02-06T15:41:52.150Z,41.77
2018-02-06T15:44:19.888Z,43.77
2018-02-06T15:46:47.462Z,42.60
2018-02-06T15:49:14.986Z,43.37
2018-02-06T15:51:43.293Z,49.23
2018-02-06T15:54:10.823Z,44.90
2018-02-06T15:56:39.132Z,45.53
2018-02-06T15:59:06.684Z,42.10
2018-02-06T16:01:34.250Z,42.10
2018-02-06T16:04:01.810Z,44.30
2018-02-06T16:06:29.347Z,44.40
2018-02-06T16:08:56.886Z,44.90
2018-02-06T16:11:24.406Z,45.33
2018-02-06T16:13:51.975Z,43.87
2018-02-06T16:16:19.506Z,43.00
2018-02-06T16:18:47.065Z,43.90
2018-02-06T16:21:14.612Z,48.00
2018-02-06T16:23:42.125Z,45.03
2018-02-06T16:26:09.726Z,44.80
2018-02-06T16:28:38.186Z,47.87
2018-02-06T16:31:08.460Z,48.63
2018-02-06T16:33:35.980Z,56.83
2018-02-06T16:36:03.545Z,51.93
2018-02-06T16:38:31.085Z,47.90
2018-02-06T16:40:58.636Z,49.37
2018-02-06T16:43:26.182Z,45.93
2018-02-06T16:45:53.714Z,46.03
2018-02-06T16:48:21.258Z,44.40
2018-02-06T16:50:48.789Z,43.60
2018-02-06T16:53:16.370Z,43.77
2018-02-06T16:55:43.887Z,42.50
2018-02-06T16:58:11.438Z,43.20
2018-02-06T17:00:38.978Z,42.30
2018-02-06T17:03:06.513Z,40.57
2018-02-06T17:05:35.186Z,42.27
2018-02-06T17:08:02.713Z,40.43
2018-02-06T17:10:31.041Z,40.77
2018-02-06T17:12:58.594Z,42.43
2018-02-06T17:15:26.153Z,42.87
2018-02-06T17:17:53.702Z,38.40
2018-02-06T17:20:21.226Z,41.73
2018-02-06T17:22:48.784Z,41.17
2018-02-06T17:25:17.359Z,41.93
2018-02-06T17:27:45.002Z,42.10
2018-02-06T17:30:13.501Z,41.90
2018-02-06T17:32:41.133Z,41.47
2018-02-06T17:35:08.682Z,42.67
2018-02-06T17:37:36.272Z,44.00
2018-02-06T17:40:03.807Z,43.50
2018-02-06T17:42:31.337Z,45.50
2018-02-06T17:44:58.916Z,49.07
2018-02-06T17:47:26.438Z,54.53
2018-02-06T17:49:54.020Z,59.40
2018-02-06T17:52:21.546Z,72.57
2018-02-06T17:54:49.154Z,55.73
2018-02-06T17:57:17.720Z,42.83
2018-02-06T17:59:45.311Z,42.70
2018-02-06T18:02:12.909Z,44.55
2018-02-06T18:04:40.532Z,46.60
2018-02-06T18:07:08.169Z,47.23
2018-02-06T18:09:35.850Z,45.80
2018-02-06T18:12:03.462Z,45.50
2018-02-06T18:14:30.986Z,46.30
2018-02-06T18:16:58.628Z,48.23
2018-02-06T18:19:26.166Z,47.60
2018-02-06T18:21:53.702Z,46.83
2018-02-06T18:24:21.253Z,49.03
2018-02-06T18:26:48.783Z,48.00
2018-02-06T18:29:17.122Z,46.90
2018-02-06T18:31:45.628Z,47.80
2018-02-06T18:34:13.252Z,50.87
2018-02-06T18:36:40.782Z,49.37
2018-02-06T18:39:08.314Z,49.07
2018-02-06T18:41:36.634Z,49.97
2018-02-06T18:44:04.184Z,50.23
2018-02-06T18:46:31.751Z,49.17
2018-02-06T18:48:59.273Z,48.40
2018-02-06T18:51:26.831Z,49.40
2018-02-06T18:53:54.456Z,49.57
2018-02-06T18:56:21.988Z,47.20
2018-02-06T18:58:51.178Z,49.77
2018-02-06T19:01:18.741Z,45.67
2018-02-06T19:03:46.367Z,48.70
2018-02-06T19:06:16.824Z,47.50
2018-02-06T19:08:44.397Z,50.47
2018-02-06T19:11:11.957Z,48.07
2018-02-06T19:13:39.693Z,50.37
2018-02-06T19:16:08.101Z,46.70
2018-02-06T19:18:35.662Z,47.83
2018-02-06T19:21:03.342Z,48.20
2018-02-06T19:23:30.914Z,45.60
2018-02-06T19:25:58.557Z,44.77
2018-02-06T19:28:26.155Z,47.07
2018-02-06T19:30:53.684Z,44.37
2018-02-06T19:33:21.906Z,48.37
2018-02-06T19:35:49.579Z,47.80
2018-02-06T19:38:17.162Z,44.27
2018-02-06T19:40:44.732Z,46.87
2018-02-06T19:43:12.304Z,45.63
2018-02-06T19:45:39.931Z,47.93
2018-02-06T19:48:08.193Z,47.70
2018-02-06T19:50:35.718Z,47.63
2018-02-06T19:53:03.283Z,50.00
2018-02-06T19:55:30.855Z,48.20
2018-02-06T19:57:59.178Z,50.00
2018-02-06T20:00:26.703Z,47.87
2018-02-06T20:02:54.254Z,46.90
2018-02-06T20:05:22.549Z,47.83
2018-02-06T20:07:50.180Z,45.30
2018-02-06T20:10:17.793Z,45.07
2018-02-06T20:12:46.270Z,45.00
2018-02-06T20:15:13.830Z,43.07
2018-02-06T20:17:41.407Z,43.10
2018-02-06T20:20:09.887Z,46.33
2018-02-06T20:22:37.442Z,45.57
2018-02-06T20:25:04.976Z,44.87
2018-02-06T20:27:32.975Z,49.23
2018-02-06T20:30:00.504Z,49.60
2018-02-06T20:32:28.031Z,45.10
2018-02-06T20:34:56.361Z,44.97
2018-02-06T20:37:23.902Z,47.20
2018-02-06T20:39:51.449Z,45.83
2018-02-06T20:42:18.977Z,44.80
2018-02-06T20:44:46.584Z,46.30
2018-02-06T20:47:14.115Z,111.70
2018-02-06T20:49:41.649Z,50.60
2018-02-06T20:52:10.173Z,74.60
2018-02-06T20:54:37.698Z,47.93
2018-02-06T20:57:05.291Z,44.70
2018-02-06T20:59:32.821Z,45.77
2018-02-06T21:02:00.353Z,48.23
2018-02-06T21:04:27.922Z,47.57
2018-02-06T21:06:55.494Z,54.17
2018-02-06T21:09:23.829Z,54.00
2018-02-06T21:11:52.338Z,52.73
2018-02-06T21:14:21.844Z,53.57
2018-02-06T21:16:50.158Z,45.80
2018-02-06T21:19:18.643Z,44.43
2018-02-06T21:21:46.198Z,44.63
2018-02-06T21:24:13.778Z,47.93
2018-02-06T21:26:41.295Z,46.63
2018-02-06T21:29:09.595Z,45.70
2018-02-06T21:31:37.121Z,45.20
2018-02-06T21:34:04.674Z,41.40
2018-02-06T21:36:32.203Z,42.77
2018-02-06T21:38:59.720Z,42.30
2018-02-06T21:41:28.205Z,41.60
2018-02-06T21:43:55.727Z,40.37
2018-02-06T21:46:24.310Z,40.97
2018-02-06T21:48:51.839Z,40.00
2018-02-06T21:51:19.394Z,43.53
2018-02-06T21:53:46.944Z,38.87
2018-02-06T21:56:14.475Z,40.92
2018-02-06T21:58:43.995Z,39.70
2018-02-06T22:01:11.518Z,40.13
2018-02-06T22:03:39.846Z,42.30
2018-02-06T22:06:07.373Z,40.97
2018-02-06T22:08:35.033Z,41.17
2018-02-06T22:11:04.493Z,40.43
2018-02-06T22:13:34.730Z,40.70
2018-02-06T22:16:02.294Z,39.30
2018-02-06T22:18:30.801Z,42.30
2018-02-06T22:20:58.413Z,42.30
2018-02-06T22:23:25.938Z,43.27
2018-02-06T22:25:53.466Z,41.70
2018-02-06T22:28:21.036Z,52.53
2018-02-06T22:30:48.569Z,54.50
2018-02-06T22:33:16.126Z,44.17
2018-02-06T22:35:44.606Z,45.73
2018-02-06T22:38:12.891Z,51.93
2018-02-06T22:40:41.219Z,64.20
2018-02-06T22:43:08.761Z,41.77
2018-02-06T22:45:37.406Z,41.80
2018-02-06T22:48:05.726Z,77.07
2018-02-06T22:50:33.258Z,49.10
2018-02-06T22:53:00.809Z,41.70
2018-02-06T22:55:28.460Z,47.87
2018-02-06T22:57:56.017Z,62.40
2018-02-06T23:00:25.465Z,43.47
2018-02-06T23:02:52.998Z,41.80
2018-02-06T23:05:22.286Z,43.77
2018-02-06T23:07:50.769Z,53.30
2018-02-06T23:10:19.093Z,47.07
2018-02-06T23:12:46.617Z,45.30
2018-02-06T23:15:16.909Z,43.80
2018-02-06T23:17:44.433Z,43.40
2018-02-06T23:20:11.971Z,44.20
2018-02-06T23:22:39.527Z,46.27
2018-02-06T23:25:08.037Z,76.80
2018-02-06T23:27:35.621Z,70.90
2018-02-06T23:30:03.154Z,56.10
2018-02-06T23:32:30.682Z,101.50
2018-02-06T23:34:58.240Z,46.60
2018-02-06T23:37:25.762Z,43.40
2018-02-06T23:39:53.321Z,47.67
2018-02-06T23:42:20.846Z,47.50
2018-02-06T23:44:48.390Z,49.20
2018-02-06T23:47:15.966Z,44.73
2018-02-06T23:49:43.491Z,45.80
2018-02-06T23:52:13.274Z,45.33
2018-02-06T23:54:40.809Z,47.07
2018-02-06T23:57:08.332Z,57.10
2018-02-06T23:59:36.846Z,56.67
